createdAt,value
2019-02-06T00:00:49.954Z,77.3
2019-02-06T00:02:50.175Z,77.3
2019-02-06T00:04:50.232Z,79.6
2019-02-06T00:06:50.076Z,79.7
2019-02-06T00:08:49.884Z,78.3
2019-02-06T00:10:49.754Z,78.3
2019-02-06T00:12:49.560Z,79.7
2019-02-06T00:14:50.416Z,78.8
2019-02-06T00:16:50.422Z,74.8
2019-02-06T00:18:50.410Z,76.6
2019-02-06T00:20:50.371Z,69.8
2019-02-06T00:22:50.223Z,69.8
2019-02-06T00:24:50.032Z,75.4
2019-02-06T00:26:49.955Z,75.1
2019-02-06T00:28:49.757Z,75.0
2019-02-06T00:30:49.521Z,75.0
2019-02-06T00:32:49.466Z,76.3
2019-02-06T00:34:50.409Z,78.4
2019-02-06T00:36:50.321Z,76.4
2019-02-06T00:38:50.121Z,70.6
2019-02-06T00:40:49.938Z,70.6
2019-02-06T00:42:49.813Z,73.9
2019-02-06T00:44:49.552Z,72.6
2019-02-06T00:46:50.420Z,66.6
2019-02-06T00:48:50.232Z,68.6
2019-02-06T00:50:50.078Z,68.6
2019-02-06T00:52:49.868Z,68.1
2019-02-06T00:54:49.736Z,66.9
2019-02-06T00:56:49.664Z,70.5
2019-02-06T00:58:50.431Z,67.0
2019-02-06T01:00:50.259Z,67.0
2019-02-06T01:02:50.041Z,61.5
2019-02-06T01:04:49.920Z,59.6
2019-02-06T01:06:49.878Z,62.7
2019-02-06T01:08:49.763Z,62.7
2019-02-06T01:10:49.557Z,60.6
2019-02-06T01:12:50.369Z,64.0
2019-02-06T01:14:50.217Z,68.5
2019-02-06T01:16:50.206Z,67.8
2019-02-06T01:18:50.049Z,67.8
2019-02-06T01:20:49.923Z,64.7
2019-02-06T01:22:49.853Z,64.4
2019-02-06T01:24:49.643Z,69.4
2019-02-06T01:26:49.506Z,63.8
2019-02-06T01:28:50.361Z,63.8
2019-02-06T01:30:50.166Z,69.1
2019-02-06T01:32:50.003Z,66.1
2019-02-06T01:34:49.834Z,63.4
2019-02-06T01:36:49.728Z,66.3
2019-02-06T01:38:49.556Z,66.3
2019-02-06T01:40:50.317Z,68.8
2019-02-06T01:42:50.046Z,66.2
2019-02-06T01:44:49.865Z,68.6
2019-02-06T01:46:49.753Z,64.3
2019-02-06T01:48:49.525Z,64.3
2019-02-06T01:50:50.333Z,69.8
2019-02-06T01:52:50.246Z,65.3
2019-02-06T01:54:50.266Z,67.0
2019-02-06T01:56:50.150Z,69.4
2019-02-06T01:58:49.963Z,69.4
2019-02-06T02:00:49.777Z,70.9
2019-02-06T02:02:49.531Z,70.9
2019-02-06T02:04:49.895Z,66.9
2019-02-06T02:06:49.940Z,66.9
2019-02-06T02:08:49.767Z,63.8
2019-02-06T02:10:49.541Z,63.7
2019-02-06T02:12:50.172Z,66.5
2019-02-06T02:14:50.000Z,66.5
2019-02-06T02:16:50.061Z,64.2
2019-02-06T02:18:49.932Z,64.2
2019-02-06T02:20:49.740Z,61.0
2019-02-06T02:22:49.643Z,62.7
2019-02-06T02:24:49.550Z,62.7
2019-02-06T02:26:49.752Z,70.4
2019-02-06T02:28:49.716Z,70.4
2019-02-06T02:30:49.549Z,67.7
2019-02-06T02:32:50.443Z,67.2
2019-02-06T02:34:49.500Z,67.6
2019-02-06T02:36:50.438Z,67.6
2019-02-06T02:38:50.238Z,63.7
2019-02-06T02:40:49.958Z,70.1
2019-02-06T02:42:49.719Z,68.4
2019-02-06T02:44:49.507Z,68.5
2019-02-06T02:46:50.394Z,68.5
2019-02-06T02:48:50.185Z,68.3
2019-02-06T02:50:49.990Z,68.2
2019-02-06T02:52:49.821Z,65.1
2019-02-06T02:54:49.639Z,65.1
2019-02-06T02:56:49.669Z,68.9
2019-02-06T02:58:50.274Z,66.0
2019-02-06T03:00:50.135Z,70.9
2019-02-06T03:02:50.051Z,72.8
2019-02-06T03:04:50.046Z,72.8
2019-02-06T03:06:49.989Z,73.4
2019-02-06T03:08:49.827Z,69.8
2019-02-06T03:10:49.668Z,66.8
2019-02-06T03:12:49.467Z,70.9
2019-02-06T03:14:50.369Z,70.9
2019-02-06T03:16:50.280Z,68.0
2019-02-06T03:18:50.101Z,69.0
2019-02-06T03:20:49.964Z,75.1
2019-02-06T03:22:49.822Z,75.1
2019-02-06T03:24:49.687Z,64.1
2019-02-06T03:26:49.663Z,76.4
2019-02-06T03:28:49.450Z,72.0
2019-02-06T03:30:50.263Z,73.4
2019-02-06T03:32:50.177Z,73.4
2019-02-06T03:34:50.204Z,69.7
2019-02-06T03:36:50.053Z,69.3
2019-02-06T03:38:49.888Z,67.9
2019-02-06T03:40:49.704Z,71.2
2019-02-06T03:42:49.472Z,71.2
2019-02-06T03:44:50.210Z,76.1
2019-02-06T03:46:50.198Z,67.4
2019-02-06T03:48:50.028Z,72.3
2019-02-06T03:50:49.953Z,72.8
2019-02-06T03:52:50.401Z,71.9
2019-02-06T03:54:50.318Z,71.9
2019-02-06T03:56:50.268Z,73.6
2019-02-06T03:58:50.009Z,75.0
2019-02-06T04:00:49.869Z,75.0
2019-02-06T04:02:49.759Z,73.1
2019-02-06T04:04:49.710Z,74.0
2019-02-06T04:06:54.473Z,74.0
2019-02-06T04:08:50.325Z,74.7
2019-02-06T04:10:50.169Z,71.6
2019-02-06T04:12:49.957Z,71.6
2019-02-06T04:14:49.803Z,72.9
2019-02-06T04:16:49.763Z,69.8
2019-02-06T04:18:49.669Z,69.8
2019-02-06T04:20:49.519Z,66.5
2019-02-06T04:22:50.046Z,66.5
2019-02-06T04:24:51.653Z,72.8
2019-02-06T04:26:49.729Z,69.3
2019-02-06T04:28:49.558Z,67.2
2019-02-06T04:30:50.361Z,56.1
2019-02-06T04:32:50.174Z,56.1
2019-02-06T04:34:50.238Z,56.5
2019-02-06T04:36:50.165Z,57.3
2019-02-06T04:38:49.864Z,59.8
2019-02-06T04:40:49.677Z,58.8
2019-02-06T04:42:49.469Z,58.8
2019-02-06T04:44:50.317Z,61.3
2019-02-06T04:46:50.324Z,56.8
2019-02-06T04:48:50.099Z,53.1
2019-02-06T04:50:50.023Z,53.1
2019-02-06T04:52:49.812Z,57.1
2019-02-06T04:54:49.764Z,57.0
2019-02-06T04:56:49.663Z,57.0
2019-02-06T04:58:49.517Z,58.4
2019-02-06T05:00:50.330Z,58.4
2019-02-06T05:02:50.198Z,58.4
2019-02-06T05:04:50.300Z,58.8
2019-02-06T05:06:50.318Z,58.8
2019-02-06T05:08:49.977Z,60.5
2019-02-06T05:10:49.757Z,60.5
2019-02-06T05:12:49.552Z,61.1
2019-02-06T05:14:50.382Z,59.9
2019-02-06T05:16:49.953Z,61.0
2019-02-06T05:18:49.760Z,61.0
2019-02-06T05:20:49.687Z,60.6
2019-02-06T05:22:49.583Z,50.8
2019-02-06T05:24:50.354Z,56.2
2019-02-06T05:26:49.553Z,63.4
2019-02-06T05:28:50.360Z,63.4
2019-02-06T05:30:50.270Z,62.6
2019-02-06T05:32:50.099Z,61.4
2019-02-06T05:34:50.244Z,55.9
2019-02-06T05:36:51.043Z,55.9
2019-02-06T05:38:49.978Z,51.7
2019-02-06T05:40:49.799Z,53.0
2019-02-06T05:42:52.580Z,56.2
2019-02-06T05:44:49.822Z,51.7
2019-02-06T05:46:49.859Z,53.9
2019-02-06T05:48:49.805Z,53.9
2019-02-06T05:50:49.604Z,53.9
2019-02-06T05:52:49.473Z,59.9
2019-02-06T05:54:50.326Z,56.1
2019-02-06T05:56:50.213Z,51.7
2019-02-06T05:58:50.008Z,51.7
2019-02-06T06:00:49.884Z,57.8
2019-02-06T06:02:49.697Z,57.8
2019-02-06T06:04:49.873Z,61.5
2019-02-06T06:06:49.667Z,59.1
2019-02-06T06:08:50.244Z,59.1
2019-02-06T06:10:50.105Z,58.3
2019-02-06T06:12:49.891Z,62.2
2019-02-06T06:14:49.755Z,64.1
2019-02-06T06:16:49.676Z,64.1
2019-02-06T06:18:49.458Z,63.0
2019-02-06T06:20:50.262Z,57.0
2019-02-06T06:22:50.069Z,62.3
2019-02-06T06:24:49.977Z,55.8
2019-02-06T06:26:49.794Z,55.8
2019-02-06T06:28:49.696Z,54.2
2019-02-06T06:30:49.646Z,58.3
2019-02-06T06:32:49.471Z,58.3
2019-02-06T06:34:49.695Z,55.8
2019-02-06T06:36:50.261Z,55.8
2019-02-06T06:38:49.920Z,55.1
2019-02-06T06:40:49.902Z,58.4
2019-02-06T06:42:49.694Z,61.4
2019-02-06T06:44:49.610Z,61.4
2019-02-06T06:46:49.760Z,52.8
2019-02-06T06:48:49.559Z,59.4
2019-02-06T06:50:50.343Z,53.7
2019-02-06T06:52:50.180Z,55.1
2019-02-06T06:54:50.035Z,55.1
2019-02-06T06:56:49.872Z,50.6
2019-02-06T06:58:49.723Z,49.6
2019-02-06T07:00:49.500Z,51.0
2019-02-06T07:02:50.406Z,57.9
2019-02-06T07:04:49.578Z,57.9
2019-02-06T07:06:49.569Z,52.6
2019-02-06T07:08:50.318Z,52.4
2019-02-06T07:10:50.125Z,54.4
2019-02-06T07:12:49.918Z,54.4
2019-02-06T07:14:49.707Z,53.4
2019-02-06T07:16:50.219Z,59.0
2019-02-06T07:18:50.116Z,57.9
2019-02-06T07:20:49.976Z,54.0
2019-02-06T07:22:49.726Z,54.4
2019-02-06T07:24:49.504Z,54.4
2019-02-06T07:26:50.353Z,53.3
2019-02-06T07:28:50.164Z,53.6
2019-02-06T07:30:49.973Z,54.1
2019-02-06T07:32:49.841Z,58.2
2019-02-06T07:34:49.936Z,58.2
2019-02-06T07:36:49.980Z,60.2
2019-02-06T07:38:49.851Z,56.2
2019-02-06T07:40:49.705Z,56.2
2019-02-06T07:42:49.505Z,58.9
2019-02-06T07:44:50.350Z,58.9
2019-02-06T07:46:50.313Z,61.2
2019-02-06T07:48:50.095Z,56.0
2019-02-06T07:50:49.888Z,56.0
2019-02-06T07:52:50.085Z,61.8
2019-02-06T07:54:50.138Z,61.8
2019-02-06T07:56:50.024Z,56.8
2019-02-06T07:58:50.818Z,60.1
2019-02-06T08:00:49.795Z,52.4
2019-02-06T08:02:50.373Z,58.7
2019-02-06T08:04:50.427Z,58.7
2019-02-06T08:06:50.284Z,52.7
2019-02-06T08:08:50.209Z,51.2
2019-02-06T08:10:49.982Z,53.8
2019-02-06T08:12:49.831Z,53.8
2019-02-06T08:14:49.703Z,53.8
2019-02-06T08:16:49.731Z,54.6
2019-02-06T08:18:49.575Z,52.8
2019-02-06T08:20:50.376Z,52.8
2019-02-06T08:22:50.216Z,55.8
2019-02-06T08:24:50.054Z,54.1
2019-02-06T08:26:50.022Z,56.4
2019-02-06T08:28:49.910Z,55.8
2019-02-06T08:30:49.771Z,55.8
2019-02-06T08:32:49.591Z,52.8
2019-02-06T08:34:49.663Z,55.6
2019-02-06T08:36:49.613Z,54.2
2019-02-06T08:38:50.117Z,54.2
2019-02-06T08:40:49.839Z,52.2
2019-02-06T08:42:49.665Z,53.0
2019-02-06T08:44:49.527Z,51.1
2019-02-06T08:46:49.543Z,51.5
2019-02-06T08:48:50.211Z,53.1
2019-02-06T08:50:50.006Z,53.1
2019-02-06T08:52:49.813Z,46.0
2019-02-06T08:54:49.707Z,57.5
2019-02-06T08:56:49.552Z,54.6
2019-02-06T08:58:50.286Z,48.7
2019-02-06T09:00:50.244Z,48.7
2019-02-06T09:02:50.098Z,45.6
2019-02-06T09:04:55.662Z,49.6
2019-02-06T09:06:49.971Z,49.6
2019-02-06T09:08:59.163Z,50.3
2019-02-06T09:10:49.941Z,50.3
2019-02-06T09:12:49.753Z,51.8
2019-02-06T09:14:49.637Z,49.6
2019-02-06T09:16:49.590Z,51.7
2019-02-06T09:18:50.099Z,54.4
2019-02-06T09:20:52.350Z,54.4
2019-02-06T09:22:49.855Z,50.6
2019-02-06T09:24:49.581Z,49.7
2019-02-06T09:26:50.298Z,49.7
2019-02-06T09:28:50.071Z,52.2
2019-02-06T09:30:49.937Z,50.8
2019-02-06T09:32:49.722Z,51.5
2019-02-06T09:34:49.947Z,49.7
2019-02-06T09:36:49.771Z,54.2
2019-02-06T09:38:49.741Z,54.2
2019-02-06T09:40:49.741Z,51.6
2019-02-06T09:42:49.654Z,52.9
2019-02-06T09:44:50.407Z,52.1
2019-02-06T09:46:50.327Z,50.8
2019-02-06T09:48:50.082Z,50.8
2019-02-06T09:50:49.847Z,56.7
2019-02-06T09:52:49.616Z,51.5
2019-02-06T09:54:50.396Z,47.5
2019-02-06T09:56:50.772Z,51.3
2019-02-06T09:58:49.570Z,51.3
2019-02-06T10:00:50.413Z,52.4
2019-02-06T10:02:50.119Z,52.5
2019-02-06T10:04:50.358Z,50.0
2019-02-06T10:06:50.241Z,50.0
2019-02-06T10:08:50.017Z,52.9
2019-02-06T10:10:49.824Z,55.6
2019-02-06T10:12:49.581Z,48.8
2019-02-06T10:14:50.386Z,55.1
2019-02-06T10:16:50.353Z,55.1
2019-02-06T10:18:50.146Z,55.4
2019-02-06T10:20:49.922Z,54.7
2019-02-06T10:22:49.703Z,52.9
2019-02-06T10:24:49.475Z,50.5
2019-02-06T10:26:50.317Z,50.5
2019-02-06T10:28:50.104Z,57.2
2019-02-06T10:30:49.987Z,54.2
2019-02-06T10:32:50.084Z,54.2
2019-02-06T10:34:49.788Z,57.8
2019-02-06T10:36:49.833Z,57.8
2019-02-06T10:38:49.986Z,52.4
2019-02-06T10:40:49.962Z,48.5
2019-02-06T10:42:49.672Z,48.5
2019-02-06T10:44:49.630Z,50.8
2019-02-06T10:46:49.691Z,53.8
2019-02-06T10:48:49.656Z,50.5
2019-02-06T10:50:49.687Z,55.3
2019-02-06T10:52:49.698Z,55.3
2019-02-06T10:54:49.685Z,56.0
2019-02-06T10:56:49.771Z,56.0
2019-02-06T10:58:49.734Z,52.6
2019-02-06T11:00:49.730Z,52.2
2019-02-06T11:02:49.791Z,52.2
2019-02-06T11:04:50.223Z,52.8
2019-02-06T11:06:50.326Z,52.8
2019-02-06T11:08:50.300Z,50.1
2019-02-06T11:10:49.482Z,48.1
2019-02-06T11:12:50.040Z,48.1
2019-02-06T11:14:50.207Z,52.0
2019-02-06T11:16:50.412Z,52.6
2019-02-06T11:18:49.599Z,47.6
2019-02-06T11:20:49.643Z,51.2
2019-02-06T11:22:49.871Z,53.1
2019-02-06T11:24:50.168Z,53.1
2019-02-06T11:26:50.390Z,48.3
2019-02-06T11:28:50.237Z,47.8
2019-02-06T11:30:50.482Z,51.8
2019-02-06T11:32:49.614Z,51.8
2019-02-06T11:34:50.193Z,52.8
2019-02-06T11:36:50.332Z,48.9
2019-02-06T11:38:49.466Z,45.9
2019-02-06T11:40:49.647Z,45.9
2019-02-06T11:42:49.862Z,48.2
2019-02-06T11:44:50.037Z,48.2
2019-02-06T11:46:50.202Z,48.6
2019-02-06T11:48:50.343Z,49.7
2019-02-06T11:50:49.520Z,47.8
2019-02-06T11:52:49.624Z,47.8
2019-02-06T11:54:49.856Z,46.8
2019-02-06T11:56:50.085Z,50.0
2019-02-06T11:58:49.882Z,55.8
2019-02-06T12:00:49.996Z,55.8
2019-02-06T12:02:50.350Z,49.6
2019-02-06T12:04:49.713Z,52.0
2019-02-06T12:06:49.674Z,45.8
2019-02-06T12:08:49.767Z,51.7
2019-02-06T12:10:49.877Z,47.1
2019-02-06T12:12:50.023Z,47.1
2019-02-06T12:14:50.151Z,47.3
2019-02-06T12:16:49.515Z,45.2
2019-02-06T12:18:49.595Z,45.2
2019-02-06T12:20:49.723Z,45.2
2019-02-06T12:22:49.883Z,44.0
2019-02-06T12:24:50.128Z,47.4
2019-02-06T12:26:50.357Z,48.0
2019-02-06T12:28:49.462Z,48.0
2019-02-06T12:30:49.617Z,48.9
2019-02-06T12:32:52.080Z,48.9
2019-02-06T12:34:50.141Z,47.3
2019-02-06T12:36:50.287Z,51.6
2019-02-06T12:38:53.292Z,51.6
2019-02-06T12:40:50.086Z,47.5
2019-02-06T12:42:50.258Z,47.5
2019-02-06T12:44:49.557Z,44.6
2019-02-06T12:46:49.855Z,46.4
2019-02-06T12:48:50.019Z,44.2
2019-02-06T12:50:50.416Z,44.2
2019-02-06T12:52:49.513Z,44.6
2019-02-06T12:54:49.632Z,42.9
2019-02-06T12:56:49.799Z,43.1
2019-02-06T12:58:49.897Z,43.4
2019-02-06T13:00:50.063Z,43.4
2019-02-06T13:02:50.170Z,42.6
2019-02-06T13:04:49.543Z,41.0
2019-02-06T13:06:49.856Z,41.0
2019-02-06T13:08:49.968Z,43.1
2019-02-06T13:10:50.112Z,43.1
2019-02-06T13:12:50.244Z,44.9
2019-02-06T13:14:50.369Z,45.8
2019-02-06T13:16:49.606Z,46.5
2019-02-06T13:18:49.729Z,48.7
2019-02-06T13:20:51.324Z,48.7
2019-02-06T13:22:49.867Z,45.2
2019-02-06T13:24:50.110Z,46.5
2019-02-06T13:26:50.378Z,48.0
2019-02-06T13:28:49.648Z,48.0
2019-02-06T13:30:49.771Z,44.2
2019-02-06T13:32:49.932Z,41.2
2019-02-06T13:34:50.295Z,43.3
2019-02-06T13:36:49.676Z,39.8
2019-02-06T13:38:49.812Z,39.8
2019-02-06T13:40:49.960Z,39.9
2019-02-06T13:42:50.131Z,42.1
2019-02-06T13:44:49.665Z,41.3
2019-02-06T13:46:53.132Z,41.3
2019-02-06T13:48:49.875Z,41.6
2019-02-06T13:50:50.137Z,38.6
2019-02-06T13:52:50.337Z,38.6
2019-02-06T13:54:49.522Z,36.5
2019-02-06T13:56:49.820Z,36.5
2019-02-06T13:58:49.724Z,40.7
2019-02-06T14:00:52.240Z,39.7
2019-02-06T14:02:49.899Z,40.5
2019-02-06T14:04:50.297Z,40.5
2019-02-06T14:06:50.397Z,37.6
2019-02-06T14:08:49.637Z,44.7
2019-02-06T14:10:58.261Z,39.9
2019-02-06T14:12:50.172Z,38.4
2019-02-06T14:14:49.498Z,38.4
2019-02-06T14:16:49.756Z,38.4
2019-02-06T14:18:49.906Z,40.8
2019-02-06T14:20:49.981Z,37.5
2019-02-06T14:22:50.164Z,37.8
2019-02-06T14:24:50.404Z,35.9
2019-02-06T14:26:49.753Z,35.9
2019-02-06T14:28:49.869Z,35.9
2019-02-06T14:30:49.495Z,33.4
2019-02-06T14:32:49.841Z,35.3
2019-02-06T14:34:49.837Z,36.6
2019-02-06T14:36:50.369Z,34.6
2019-02-06T14:38:49.524Z,34.6
2019-02-06T14:40:49.677Z,36.8
2019-02-06T14:42:50.136Z,36.8
2019-02-06T14:44:52.518Z,36.8
2019-02-06T14:46:49.909Z,36.8
2019-02-06T14:48:50.281Z,32.6
2019-02-06T14:50:50.418Z,36.4
2019-02-06T14:52:50.307Z,36.4
2019-02-06T14:54:49.602Z,35.0
2019-02-06T14:56:49.817Z,35.0
2019-02-06T14:58:49.481Z,36.1
2019-02-06T15:00:59.420Z,36.7
2019-02-06T15:02:49.646Z,36.7
2019-02-06T15:04:49.828Z,34.1
2019-02-06T15:06:49.856Z,34.1
2019-02-06T15:08:49.918Z,34.1
2019-02-06T15:10:49.913Z,35.7
2019-02-06T15:12:49.902Z,34.8
2019-02-06T15:14:49.813Z,34.8
2019-02-06T15:16:50.125Z,37.0
2019-02-06T15:18:50.109Z,35.8
2019-02-06T15:20:50.099Z,35.8
2019-02-06T15:22:50.129Z,37.0
2019-02-06T15:24:49.780Z,37.0
2019-02-06T15:26:49.902Z,41.8
2019-02-06T15:28:49.853Z,35.8
2019-02-06T15:30:49.778Z,36.8
2019-02-06T15:32:50.041Z,35.8
2019-02-06T15:34:50.293Z,35.8
2019-02-06T15:36:50.368Z,33.7
2019-02-06T15:38:50.382Z,31.9
2019-02-06T15:40:49.892Z,32.1
2019-02-06T15:42:49.561Z,33.8
2019-02-06T15:44:49.462Z,33.8
2019-02-06T15:46:50.163Z,34.3
2019-02-06T15:48:49.842Z,34.9
2019-02-06T15:50:49.633Z,34.9
2019-02-06T15:52:49.585Z,37.3
2019-02-06T15:54:49.488Z,37.3
2019-02-06T15:56:50.392Z,34.9
2019-02-06T15:58:50.212Z,35.9
2019-02-06T16:00:50.020Z,33.8
2019-02-06T16:02:49.829Z,33.8
2019-02-06T16:04:49.803Z,35.2
2019-02-06T16:06:49.728Z,35.2
2019-02-06T16:08:49.516Z,37.8
2019-02-06T16:10:50.278Z,39.5
2019-02-06T16:12:49.800Z,39.5
2019-02-06T16:14:49.601Z,38.1
2019-02-06T16:16:50.439Z,42.4
2019-02-06T16:18:50.206Z,39.7
2019-02-06T16:20:50.064Z,39.7
2019-02-06T16:22:49.919Z,43.4
2019-02-06T16:24:49.800Z,36.7
2019-02-06T16:26:49.687Z,40.9
2019-02-06T16:28:50.420Z,42.5
2019-02-06T16:30:50.186Z,46.3
2019-02-06T16:32:50.063Z,46.3
2019-02-06T16:34:49.874Z,43.2
2019-02-06T16:36:49.688Z,40.3
2019-02-06T16:38:49.453Z,42.9
2019-02-06T16:40:50.264Z,45.1
2019-02-06T16:42:49.807Z,45.1
2019-02-06T16:44:49.693Z,44.5
2019-02-06T16:46:49.628Z,44.4
2019-02-06T16:48:50.437Z,48.0
2019-02-06T16:50:50.119Z,46.3
2019-02-06T16:52:49.958Z,46.3
2019-02-06T16:54:49.760Z,49.0
2019-02-06T16:56:49.695Z,47.4
2019-02-06T16:58:50.297Z,47.4
2019-02-06T17:00:50.231Z,48.1
2019-02-06T17:02:50.019Z,48.1
2019-02-06T17:04:50.227Z,48.9
2019-02-06T17:06:50.158Z,45.9
2019-02-06T17:08:49.923Z,50.7
2019-02-06T17:10:49.730Z,50.7
2019-02-06T17:12:50.203Z,52.1
2019-02-06T17:14:50.094Z,50.5
2019-02-06T17:16:50.070Z,50.8
2019-02-06T17:18:49.985Z,50.8
2019-02-06T17:20:49.754Z,51.5
2019-02-06T17:22:49.510Z,51.5
2019-02-06T17:24:50.385Z,52.0
2019-02-06T17:26:49.743Z,52.8
2019-02-06T17:28:49.523Z,53.2
2019-02-06T17:30:50.286Z,53.2
2019-02-06T17:32:50.083Z,55.3
2019-02-06T17:34:50.126Z,53.6
2019-02-06T17:36:49.954Z,60.2
2019-02-06T17:38:50.106Z,60.2
2019-02-06T17:40:49.888Z,52.7
2019-02-06T17:42:49.653Z,53.5
2019-02-06T17:44:49.470Z,58.4
2019-02-06T17:46:49.477Z,60.1
2019-02-06T17:48:50.204Z,60.1
2019-02-06T17:50:50.110Z,59.6
2019-02-06T17:52:49.895Z,63.8
2019-02-06T17:54:49.655Z,58.8
2019-02-06T17:56:49.674Z,59.9
2019-02-06T17:58:49.570Z,59.9
2019-02-06T18:00:50.437Z,64.6
2019-02-06T18:02:50.279Z,62.0
2019-02-06T18:04:50.264Z,63.4
2019-02-06T18:06:50.148Z,63.1
2019-02-06T18:08:56.574Z,63.1
2019-02-06T18:10:49.989Z,68.6
2019-02-06T18:12:49.811Z,68.6
2019-02-06T18:14:49.571Z,68.0
2019-02-06T18:16:50.310Z,68.0
2019-02-06T18:18:50.241Z,70.6
2019-02-06T18:20:50.002Z,65.7
2019-02-06T18:22:49.932Z,66.5
2019-02-06T18:24:49.527Z,69.0
2019-02-06T18:26:49.523Z,69.0
2019-02-06T18:28:50.416Z,67.0
2019-02-06T18:30:50.299Z,67.0
2019-02-06T18:32:50.098Z,72.1
2019-02-06T18:34:50.228Z,69.7
2019-02-06T18:36:50.209Z,69.7
2019-02-06T18:38:49.895Z,71.5
2019-02-06T18:40:49.691Z,73.2
2019-02-06T18:42:49.632Z,69.8
2019-02-06T18:44:50.426Z,75.2
2019-02-06T18:46:50.323Z,75.2
2019-02-06T18:48:50.164Z,71.8
2019-02-06T18:50:50.002Z,69.1
2019-02-06T18:52:50.178Z,70.1
2019-02-06T18:54:49.990Z,73.1
2019-02-06T18:56:49.919Z,73.1
2019-02-06T18:58:49.772Z,69.4
2019-02-06T19:00:49.633Z,76.0
2019-02-06T19:02:49.681Z,72.3
2019-02-06T19:04:49.937Z,67.0
2019-02-06T19:06:49.822Z,67.0
2019-02-06T19:08:49.795Z,68.5
2019-02-06T19:10:49.640Z,72.4
2019-02-06T19:12:50.786Z,67.0
2019-02-06T19:14:49.669Z,70.8
2019-02-06T19:16:49.603Z,70.8
2019-02-06T19:18:49.489Z,70.8
2019-02-06T19:20:50.313Z,66.8
2019-02-06T19:22:50.131Z,70.3
2019-02-06T19:24:49.963Z,70.3
2019-02-06T19:26:49.858Z,71.7
2019-02-06T19:28:49.684Z,70.5
2019-02-06T19:30:49.512Z,70.5
2019-02-06T19:32:50.339Z,66.7
2019-02-06T19:34:49.622Z,66.7
2019-02-06T19:36:49.580Z,68.7
2019-02-06T19:38:49.635Z,67.6
2019-02-06T19:40:49.458Z,64.0
2019-02-06T19:42:59.003Z,72.7
2019-02-06T19:44:49.509Z,72.7
2019-02-06T19:46:50.319Z,67.2
2019-02-06T19:48:50.189Z,70.3
2019-02-06T19:50:50.033Z,67.6
2019-02-06T19:52:50.035Z,67.6
2019-02-06T19:54:49.912Z,67.0
2019-02-06T19:56:50.228Z,74.4
2019-02-06T19:58:50.138Z,70.0
2019-02-06T20:00:49.960Z,70.0
2019-02-06T20:02:49.785Z,67.2
2019-02-06T20:04:50.075Z,67.2
2019-02-06T20:06:50.109Z,72.0
2019-02-06T20:08:49.904Z,68.9
2019-02-06T20:10:49.866Z,68.7
2019-02-06T20:12:49.702Z,65.5
2019-02-06T20:14:49.505Z,65.5
2019-02-06T20:16:50.390Z,70.8
2019-02-06T20:18:50.247Z,70.1
2019-02-06T20:20:50.089Z,70.1
2019-02-06T20:22:49.966Z,73.8
2019-02-06T20:24:49.843Z,74.1
2019-02-06T20:26:49.829Z,73.7
2019-02-06T20:28:49.615Z,74.5
2019-02-06T20:30:49.493Z,80.0
2019-02-06T20:32:50.037Z,80.0
2019-02-06T20:34:50.062Z,71.7
2019-02-06T20:36:49.937Z,75.1
2019-02-06T20:38:51.887Z,70.3
2019-02-06T20:40:49.733Z,72.2
2019-02-06T20:42:49.683Z,72.2
2019-02-06T20:44:49.488Z,72.5
2019-02-06T20:46:49.556Z,76.6
2019-02-06T20:48:50.384Z,75.0
2019-02-06T20:50:51.529Z,75.0
2019-02-06T20:52:49.564Z,74.3
2019-02-06T20:54:50.228Z,71.8
2019-02-06T20:56:50.075Z,73.7
2019-02-06T20:58:49.874Z,73.7
2019-02-06T21:00:49.665Z,69.8
2019-02-06T21:02:49.468Z,69.0
2019-02-06T21:04:49.543Z,77.5
2019-02-06T21:06:49.484Z,76.1
2019-02-06T21:08:50.306Z,71.2
2019-02-06T21:10:50.196Z,71.2
2019-02-06T21:12:50.068Z,74.6
2019-02-06T21:14:49.943Z,75.0
2019-02-06T21:16:49.828Z,75.0
2019-02-06T21:18:49.720Z,69.5
2019-02-06T21:20:51.767Z,69.5
2019-02-06T21:22:49.896Z,71.6
2019-02-06T21:24:49.569Z,70.9
2019-02-06T21:26:49.497Z,69.0
2019-02-06T21:28:50.421Z,69.1
2019-02-06T21:30:50.342Z,69.1
2019-02-06T21:32:49.483Z,71.0
2019-02-06T21:34:49.572Z,77.5
2019-02-06T21:36:49.607Z,74.5
2019-02-06T21:38:50.402Z,71.8
2019-02-06T21:40:50.249Z,71.8
2019-02-06T21:42:50.124Z,75.4
2019-02-06T21:44:49.954Z,75.5
2019-02-06T21:46:49.861Z,78.5
2019-02-06T21:48:49.740Z,78.5
2019-02-06T21:50:49.497Z,72.1
2019-02-06T21:52:49.552Z,71.5
2019-02-06T21:54:50.313Z,71.5
2019-02-06T21:56:50.301Z,77.6
2019-02-06T21:58:50.127Z,70.2
2019-02-06T22:00:50.043Z,70.5
2019-02-06T22:02:50.198Z,71.4
2019-02-06T22:04:50.220Z,69.1
2019-02-06T22:06:50.095Z,73.2
2019-02-06T22:08:49.943Z,73.2
2019-02-06T22:10:50.109Z,74.4
2019-02-06T22:12:49.925Z,70.5
2019-02-06T22:14:49.744Z,72.0
2019-02-06T22:16:49.688Z,71.8
2019-02-06T22:18:50.292Z,71.8
2019-02-06T22:20:50.143Z,69.8
2019-02-06T22:22:50.028Z,72.1
2019-02-06T22:24:49.881Z,71.2
2019-02-06T22:26:49.815Z,74.0
2019-02-06T22:28:49.674Z,74.0
2019-02-06T22:30:49.523Z,71.2
2019-02-06T22:32:50.364Z,76.8
2019-02-06T22:34:49.575Z,70.7
2019-02-06T22:36:49.566Z,70.7
2019-02-06T22:38:50.371Z,74.3
2019-02-06T22:40:50.279Z,72.1
2019-02-06T22:42:50.111Z,69.6
2019-02-06T22:44:50.060Z,63.3
2019-02-06T22:46:50.037Z,64.3
2019-02-06T22:48:49.821Z,64.3
2019-02-06T22:50:49.720Z,70.7
2019-02-06T22:52:49.601Z,70.7
2019-02-06T22:54:50.421Z,66.3
2019-02-06T22:56:50.366Z,66.3
2019-02-06T22:58:50.194Z,61.7
2019-02-06T23:00:50.104Z,64.5
2019-02-06T23:02:49.981Z,64.5
2019-02-06T23:04:50.075Z,65.7
2019-02-06T23:06:49.964Z,65.7
2019-02-06T23:08:49.886Z,66.4
2019-02-06T23:10:49.718Z,65.5
2019-02-06T23:12:49.624Z,67.5
2019-02-06T23:14:49.527Z,66.0
2019-02-06T23:16:50.396Z,66.0
2019-02-06T23:18:52.077Z,61.6
2019-02-06T23:20:49.710Z,63.2
2019-02-06T23:22:49.783Z,67.7
2019-02-06T23:24:49.619Z,65.1
2019-02-06T23:26:49.741Z,65.1
2019-02-06T23:28:50.404Z,65.2
2019-02-06T23:30:50.246Z,64.9
2019-02-06T23:32:50.036Z,61.2
2019-02-06T23:34:50.284Z,61.2
2019-02-06T23:36:50.042Z,64.6
2019-02-06T23:38:49.916Z,66.6
2019-02-06T23:40:49.830Z,65.6
2019-02-06T23:42:49.691Z,58.5
2019-02-06T23:44:49.580Z,58.5
2019-02-06T23:46:49.646Z,65.1
2019-02-06T23:48:49.471Z,62.2
2019-02-06T23:50:50.459Z,63.6
2019-02-06T23:52:50.379Z,59.8
2019-02-06T23:54:50.332Z,59.8
2019-02-06T23:56:49.478Z,65.4
2019-02-06T23:58:50.307Z,62.2
